Time;durP1;ratioP1;P1;durP2;ratioP2;P2;SDS_P1;SDS_P2;PMS_P1;PMS_P2;Temp;Humidity;BMP_temperature;BMP_pressure;BME280_temperature;BME280_humidity;BME280_pressure;Samples;Min_cycle;Max_cycle;Signal;HPM_P1;HPM_P2
2023/12/18 00:01:56;;;;;;;13.60;2.60;;;10.40;99.90;;;;;;6319405;28;20124;-83
2023/12/18 00:04:58;;;;;;;14.68;2.95;;;10.30;99.90;;;;;;6319850;28;20060;-82
2023/12/18 00:08:00;;;;;;;9.43;2.10;;;10.40;99.90;;;;;;6298961;28;20167;-83
2023/12/18 00:11:02;;;;;;;14.18;2.60;;;10.30;99.90;;;;;;6320412;28;20082;-83
2023/12/18 00:14:03;;;;;;;15.38;2.50;;;10.30;99.90;;;;;;6304901;28;20055;-84
2023/12/18 00:17:05;;;;;;;10.52;2.35;;;10.30;99.90;;;;;;6319133;28;20079;-83
2023/12/18 00:20:07;;;;;;;10.65;2.22;;;10.30;99.90;;;;;;6299852;28;20052;-83
2023/12/18 00:23:08;;;;;;;10.20;2.30;;;10.30;99.90;;;;;;6295780;28;20084;-83
2023/12/18 00:26:10;;;;;;;8.85;1.90;;;10.30;99.90;;;;;;6319402;28;20497;-83
2023/12/18 00:29:12;;;;;;;11.50;2.05;;;10.40;99.90;;;;;;6310641;28;20056;-83
2023/12/18 00:32:14;;;;;;;12.20;2.25;;;10.30;99.90;;;;;;6297961;28;20083;-85
2023/12/18 00:35:15;;;;;;;11.27;2.10;;;10.30;99.90;;;;;;6295692;28;20499;-83
2023/12/18 00:38:20;;;;;;;12.10;2.13;;;10.30;99.90;;;;;;6317555;28;20499;-83
2023/12/18 00:41:21;;;;;;;13.38;2.58;;;10.30;99.90;;;;;;6318593;28;20537;-83
2023/12/18 00:44:23;;;;;;;10.40;2.00;;;10.30;99.90;;;;;;6296253;28;20056;-84
2023/12/18 00:47:24;;;;;;;12.75;2.30;;;10.30;99.90;;;;;;6317869;28;20059;-82
2023/12/18 00:50:26;;;;;;;10.55;2.00;;;10.30;99.90;;;;;;6295489;28;20562;-83
2023/12/18 00:53:28;;;;;;;13.70;2.72;;;10.40;99.90;;;;;;6294745;28;20128;-83
2023/12/18 00:56:30;;;;;;;11.77;2.33;;;10.30;99.90;;;;;;6319434;28;20047;-82
2023/12/18 00:59:31;;;;;;;10.68;2.03;;;10.30;99.90;;;;;;6306901;28;20055;-82
2023/12/18 01:02:33;;;;;;;13.10;2.10;;;10.20;99.90;;;;;;6310793;28;20048;-81
2023/12/18 01:05:35;;;;;;;9.73;2.10;;;10.20;99.90;;;;;;6293982;28;20178;-83
2023/12/18 01:08:36;;;;;;;9.95;2.33;;;10.20;99.90;;;;;;6309614;28;20063;-83
2023/12/18 01:11:38;;;;;;;12.43;2.33;;;10.10;99.90;;;;;;6307900;28;20499;-82
2023/12/18 01:14:41;;;;;;;13.57;2.35;;;10.00;99.90;;;;;;6290846;28;20059;-84
2023/12/18 01:17:43;;;;;;;12.27;2.13;;;10.00;99.90;;;;;;6318973;28;20055;-83
2023/12/18 01:20:45;;;;;;;11.93;2.40;;;9.80;99.90;;;;;;6293905;28;20067;-83
2023/12/18 01:23:47;;;;;;;11.65;2.15;;;9.80;99.90;;;;;;6318329;28;20064;-83
2023/12/18 01:26:48;;;;;;;14.40;2.17;;;9.70;99.90;;;;;;6295073;28;20181;-83
2023/12/18 01:29:50;;;;;;;13.40;2.35;;;9.70;99.90;;;;;;6308431;28;20068;-85
2023/12/18 01:32:51;;;;;;;9.93;2.10;;;9.60;99.90;;;;;;6317796;28;20059;-85
2023/12/18 01:35:53;;;;;;;9.52;2.10;;;9.60;99.90;;;;;;6317071;28;20553;-85
2023/12/18 01:38:55;;;;;;;11.18;2.50;;;9.60;99.90;;;;;;6305044;28;20571;-84
2023/12/18 01:41:57;;;;;;;13.23;2.38;;;9.50;99.90;;;;;;6318411;28;20171;-85
2023/12/18 01:44:58;;;;;;;13.75;2.45;;;9.50;99.90;;;;;;6312161;28;20064;-85
2023/12/18 01:48:00;;;;;;;13.40;2.40;;;9.50;99.90;;;;;;6293634;28;20059;-85
2023/12/18 01:51:02;;;;;;;11.65;2.05;;;9.50;99.90;;;;;;6317565;28;20048;-84
2023/12/18 01:54:03;;;;;;;12.00;2.10;;;9.50;99.90;;;;;;6293935;28;20126;-84
2023/12/18 01:57:05;;;;;;;14.13;2.58;;;9.50;99.90;;;;;;6317748;28;20048;-84
2023/12/18 02:00:07;;;;;;;12.85;2.13;;;9.50;99.90;;;;;;6289763;28;20064;-85
2023/12/18 02:03:08;;;;;;;11.20;2.15;;;9.50;99.90;;;;;;6315876;28;20043;-85
2023/12/18 02:06:10;;;;;;;10.77;2.10;;;9.40;99.90;;;;;;6293337;28;20142;-85
2023/12/18 02:09:12;;;;;;;11.30;2.40;;;9.40;99.90;;;;;;6302375;28;20056;-85
2023/12/18 02:12:14;;;;;;;11.20;1.90;;;9.40;99.90;;;;;;6317093;28;20052;-83
2023/12/18 02:15:15;;;;;;;11.98;2.05;;;9.40;99.90;;;;;;6290616;28;20500;-83
2023/12/18 02:18:17;;;;;;;8.85;2.15;;;9.50;99.90;;;;;;6316170;28;20059;-83
2023/12/18 02:21:19;;;;;;;12.43;2.20;;;9.50;99.90;;;;;;6292320;28;20058;-85
2023/12/18 02:24:21;;;;;;;14.88;2.35;;;9.50;99.90;;;;;;6316937;28;20051;-83
2023/12/18 02:27:23;;;;;;;13.32;2.03;;;9.50;99.90;;;;;;6293439;28;20052;-83
2023/12/18 02:30:24;;;;;;;10.77;2.20;;;9.50;99.90;;;;;;6313107;28;20059;-83
2023/12/18 02:33:26;;;;;;;12.15;1.77;;;9.50;99.90;;;;;;6316294;28;20052;-85
2023/12/18 02:36:28;;;;;;;16.83;2.47;;;9.40;99.90;;;;;;6316520;28;20055;-84
2023/12/18 02:39:30;;;;;;;10.07;1.95;;;9.40;99.90;;;;;;6311293;28;20075;-83
2023/12/18 02:42:31;;;;;;;13.95;2.15;;;9.40;99.90;;;;;;6316637;28;20503;-83
2023/12/18 02:45:33;;;;;;;11.27;2.10;;;9.40;99.90;;;;;;6308763;28;20068;-82
2023/12/18 02:48:35;;;;;;;12.43;2.13;;;9.30;99.90;;;;;;6297077;28;20102;-82
2023/12/18 02:51:36;;;;;;;13.55;2.33;;;9.30;99.90;;;;;;6318778;28;20049;-85
2023/12/18 02:54:38;;;;;;;9.27;1.88;;;9.40;99.90;;;;;;6309461;28;20048;-85
2023/12/18 02:57:40;;;;;;;12.75;1.90;;;9.40;99.90;;;;;;6319365;28;20423;-85
2023/12/18 03:00:42;;;;;;;14.18;2.28;;;9.50;99.90;;;;;;6311454;28;20051;-82
2023/12/18 03:03:44;;;;;;;14.77;2.25;;;9.60;99.90;;;;;;6321972;28;20048;-85
2023/12/18 03:06:46;;;;;;;7.30;1.65;;;9.60;99.90;;;;;;6319632;28;20056;-83
2023/12/18 03:09:47;;;;;;;10.70;2.00;;;9.70;99.90;;;;;;6317260;28;20056;-85
2023/12/18 03:12:49;;;;;;;11.13;1.90;;;9.80;99.90;;;;;;6298986;28;20143;-84
2023/12/18 03:15:51;;;;;;;11.60;1.77;;;9.80;99.90;;;;;;6318413;28;20051;-84
2023/12/18 03:18:53;;;;;;;11.32;2.13;;;9.90;99.90;;;;;;6295606;28;20059;-84
2023/12/18 03:21:55;;;;;;;12.65;2.10;;;9.80;99.90;;;;;;6321526;28;20051;-84
2023/12/18 03:24:56;;;;;;;13.35;1.98;;;9.90;99.90;;;;;;6321106;28;20048;-84
2023/12/18 03:27:58;;;;;;;12.63;1.73;;;9.90;99.90;;;;;;6300056;28;20044;-85
2023/12/18 03:31:00;;;;;;;11.85;1.80;;;9.80;99.90;;;;;;6306394;28;20055;-84
2023/12/18 03:34:01;;;;;;;9.85;1.70;;;9.90;99.90;;;;;;6315826;28;20096;-85
2023/12/18 03:37:03;;;;;;;8.15;1.60;;;9.80;99.90;;;;;;6317370;28;20048;-84
2023/12/18 03:40:05;;;;;;;14.20;2.33;;;9.80;99.90;;;;;;6320919;28;20052;-85
2023/12/18 03:43:06;;;;;;;10.85;2.03;;;9.80;99.90;;;;;;6301479;28;20047;-86
2023/12/18 03:46:08;;;;;;;10.70;2.20;;;9.70;99.90;;;;;;6308617;28;20065;-84
2023/12/18 03:49:09;;;;;;;12.23;1.90;;;9.70;99.90;;;;;;6320489;28;20071;-84
2023/12/18 03:52:11;;;;;;;12.00;2.00;;;9.70;99.90;;;;;;6304360;28;20048;-84
2023/12/18 03:55:13;;;;;;;17.27;2.65;;;9.60;99.90;;;;;;6298226;28;20049;-84
2023/12/18 03:58:14;;;;;;;12.38;2.67;;;9.60;99.90;;;;;;6312487;28;20145;-84
2023/12/18 04:01:16;;;;;;;9.65;1.90;;;9.70;99.90;;;;;;6296842;28;20052;-84
2023/12/18 04:04:18;;;;;;;13.50;2.47;;;9.60;99.90;;;;;;6297580;28;20061;-84
2023/12/18 04:07:19;;;;;;;9.88;1.92;;;9.70;99.90;;;;;;6299541;28;20101;-84
2023/12/18 04:10:21;;;;;;;9.82;1.80;;;9.80;99.90;;;;;;6319248;28;20505;-84
2023/12/18 04:13:23;;;;;;;7.65;1.80;;;9.80;99.90;;;;;;6302399;28;20059;-85
2023/12/18 04:16:24;;;;;;;12.05;2.00;;;9.80;99.90;;;;;;6319162;28;20056;-85
2023/12/18 04:19:26;;;;;;;11.25;1.80;;;9.90;99.90;;;;;;6296155;28;20708;-84
2023/12/18 04:22:28;;;;;;;11.15;1.90;;;9.90;99.90;;;;;;6319508;28;20063;-85
2023/12/18 04:25:30;;;;;;;13.93;2.42;;;9.90;99.90;;;;;;6295477;28;20048;-84
2023/12/18 04:28:31;;;;;;;7.20;1.80;;;9.90;99.90;;;;;;6307601;28;20059;-84
2023/12/18 04:31:33;;;;;;;11.48;1.88;;;9.90;99.90;;;;;;6318397;28;20098;-84
2023/12/18 04:34:35;;;;;;;12.07;1.60;;;9.90;99.90;;;;;;6294568;28;20055;-84
2023/12/18 04:37:37;;;;;;;10.10;1.80;;;9.90;99.90;;;;;;6318866;28;20388;-83
2023/12/18 04:40:38;;;;;;;8.70;2.10;;;9.90;99.90;;;;;;6318558;28;20068;-85
2023/12/18 04:43:41;;;;;;;16.67;2.10;;;9.90;99.90;;;;;;6316918;22;20059;-88
2023/12/18 04:46:43;;;;;;;12.05;1.70;;;9.90;99.90;;;;;;6272563;28;20053;-88
2023/12/18 04:49:44;;;;;;;8.98;1.65;;;10.00;99.90;;;;;;6270947;28;20060;-88
2023/12/18 04:52:46;;;;;;;10.93;2.22;;;9.90;99.90;;;;;;6247178;28;20053;-88
2023/12/18 04:55:48;;;;;;;10.52;2.05;;;9.90;99.90;;;;;;6267935;28;20080;-88
2023/12/18 04:58:50;;;;;;;11.75;1.73;;;9.90;99.90;;;;;;6257780;28;20052;-86
2023/12/18 05:01:51;;;;;;;9.50;1.90;;;9.90;99.90;;;;;;6248134;28;20566;-87
2023/12/18 05:04:53;;;;;;;15.15;2.00;;;10.00;99.90;;;;;;6272632;28;20049;-89
2023/12/18 05:07:55;;;;;;;10.95;1.83;;;9.90;99.90;;;;;;6270698;28;20041;-88
2023/12/18 05:10:56;;;;;;;10.38;1.67;;;9.90;99.90;;;;;;6257489;28;20046;-88
2023/12/18 05:13:58;;;;;;;14.57;2.30;;;9.90;99.90;;;;;;6258037;28;20172;-88
2023/12/18 05:16:59;;;;;;;10.40;2.17;;;10.00;99.90;;;;;;6256471;28;20064;-88
2023/12/18 05:20:01;;;;;;;10.10;2.15;;;9.90;99.90;;;;;;6272713;28;20060;-88
2023/12/18 05:23:03;;;;;;;9.10;1.67;;;9.90;99.90;;;;;;6248991;28;20049;-87
2023/12/18 05:26:05;;;;;;;8.88;1.80;;;9.90;99.90;;;;;;6273458;28;20049;-88
2023/12/18 05:29:06;;;;;;;10.73;1.70;;;9.90;99.90;;;;;;6258990;28;20045;-89
2023/12/18 05:32:08;;;;;;;9.95;1.85;;;9.90;99.90;;;;;;6249979;28;20362;-89
2023/12/18 05:35:10;;;;;;;10.77;1.80;;;9.80;99.90;;;;;;6271670;28;20080;-89
2023/12/18 05:38:12;;;;;;;12.35;2.47;;;9.90;99.90;;;;;;6274340;28;20052;-90
2023/12/18 05:41:13;;;;;;;9.13;1.75;;;9.90;99.90;;;;;;6249621;28;20056;-88
2023/12/18 05:44:15;;;;;;;8.18;1.83;;;9.90;99.90;;;;;;6258685;28;20068;-89
2023/12/18 05:47:17;;;;;;;10.82;1.90;;;9.90;99.90;;;;;;6272983;28;20045;-88
2023/12/18 05:50:18;;;;;;;10.00;2.20;;;9.90;99.90;;;;;;6272834;28;20134;-89
2023/12/18 05:53:21;;;;;;;12.35;2.17;;;10.00;99.90;;;;;;6248334;28;20060;-88
2023/12/18 05:56:22;;;;;;;8.77;1.73;;;10.00;99.90;;;;;;6273437;28;20053;-88
2023/12/18 05:59:24;;;;;;;11.02;1.83;;;10.00;99.90;;;;;;6264251;28;20408;-87
2023/12/18 06:02:26;;;;;;;7.53;1.75;;;10.00;99.90;;;;;;6248429;28;20061;-88
2023/12/18 06:05:27;;;;;;;9.55;1.85;;;10.00;99.90;;;;;;6270381;28;20056;-87
2023/12/18 06:08:29;;;;;;;8.73;1.83;;;10.00;99.90;;;;;;6272645;28;20752;-87
2023/12/18 06:11:31;;;;;;;9.63;2.20;;;9.90;99.90;;;;;;6248466;28;20061;-89
2023/12/18 06:14:32;;;;;;;11.38;2.03;;;9.90;99.90;;;;;;6257359;28;20080;-90
2023/12/18 06:17:34;;;;;;;10.93;1.95;;;9.90;99.90;;;;;;6273001;28;20084;-90
2023/12/18 06:20:36;;;;;;;9.20;1.80;;;10.10;99.90;;;;;;6250620;28;20042;-89
2023/12/18 06:23:39;;;;;;;12.07;2.10;;;10.00;99.90;;;;;;6277291;28;20124;-88
2023/12/18 06:26:41;;;;;;;9.98;1.80;;;10.00;99.90;;;;;;6268615;28;20049;-88
2023/12/18 06:29:43;;;;;;;10.13;1.90;;;10.10;99.60;;;;;;6254050;28;20056;-85
2023/12/18 06:32:44;;;;;;;9.93;1.80;;;10.10;99.30;;;;;;6253151;28;20124;-89
2023/12/18 06:35:46;;;;;;;10.77;1.92;;;10.10;99.80;;;;;;6277554;28;20048;-91
2023/12/18 06:38:48;;;;;;;12.75;2.22;;;10.10;99.60;;;;;;6258201;28;20053;-85
2023/12/18 06:41:50;;;;;;;10.45;2.10;;;10.10;98.90;;;;;;6275717;28;20400;-86
2023/12/18 06:44:51;;;;;;;8.93;2.20;;;10.10;99.30;;;;;;6260607;28;20515;-87
2023/12/18 06:47:53;;;;;;;10.40;1.92;;;10.10;99.60;;;;;;6251904;28;20078;-86
2023/12/18 06:50:55;;;;;;;8.73;2.10;;;10.10;99.70;;;;;;6276474;28;20052;-85
2023/12/18 06:53:57;;;;;;;10.32;2.22;;;10.10;99.90;;;;;;6250817;28;20057;-86
2023/12/18 06:56:58;;;;;;;6.82;1.98;;;10.10;99.90;;;;;;6274299;28;20088;-85
2023/12/18 07:00:00;;;;;;;11.23;2.10;;;10.00;99.90;;;;;;6248320;28;20059;-84
2023/12/18 07:03:02;;;;;;;10.30;2.03;;;10.00;99.80;;;;;;6272681;28;20045;-84
2023/12/18 07:06:04;;;;;;;9.82;1.83;;;10.00;99.20;;;;;;6249332;28;20111;-87
2023/12/18 07:09:05;;;;;;;11.45;1.63;;;10.00;99.10;;;;;;6274507;28;20049;-84
2023/12/18 07:12:07;;;;;;;14.57;2.30;;;10.10;99.10;;;;;;6249782;28;20390;-84
2023/12/18 07:15:09;;;;;;;12.10;2.28;;;10.00;99.30;;;;;;6273921;28;20055;-87
2023/12/18 07:18:13;;;;;;;11.32;2.40;;;10.00;99.60;;;;;;6251584;28;20485;-88
2023/12/18 07:21:15;;;;;;;13.63;2.40;;;10.10;99.00;;;;;;6276804;28;20134;-88
2023/12/18 07:24:17;;;;;;;9.90;1.80;;;10.10;99.10;;;;;;6251716;28;20501;-87
2023/12/18 07:27:19;;;;;;;10.77;1.98;;;10.10;99.50;;;;;;6274619;28;20045;-87
2023/12/18 07:30:20;;;;;;;11.80;2.15;;;10.10;99.40;;;;;;6249446;28;20060;-86
2023/12/18 07:33:22;;;;;;;13.13;1.77;;;10.20;98.50;;;;;;6274521;28;20049;-85
2023/12/18 07:36:24;;;;;;;11.75;1.85;;;10.20;98.70;;;;;;6251175;28;20049;-87
2023/12/18 07:39:26;;;;;;;7.85;2.28;;;10.20;98.80;;;;;;6252454;28;20088;-84
2023/12/18 07:42:28;;;;;;;8.90;1.90;;;10.20;98.70;;;;;;6272675;28;20143;-83
2023/12/18 07:45:30;;;;;;;11.48;2.25;;;10.20;98.70;;;;;;6262995;28;20512;-85
2023/12/18 07:48:31;;;;;;;10.50;1.90;;;10.20;99.10;;;;;;6250598;28;20045;-85
2023/12/18 07:51:34;;;;;;;10.02;2.30;;;10.20;99.00;;;;;;6274491;28;20060;-86
2023/12/18 07:54:35;;;;;;;13.90;2.15;;;10.20;99.20;;;;;;6250159;28;20075;-87
2023/12/18 07:57:39;;;;;;;7.15;2.08;;;10.30;99.40;;;;;;6272200;28;20081;-86
2023/12/18 08:00:41;;;;;;;9.02;2.10;;;10.20;99.80;;;;;;6250289;28;20381;-89
2023/12/18 08:03:43;;;;;;;8.55;2.47;;;10.10;99.90;;;;;;6267596;28;20045;-87
2023/12/18 08:06:47;;;;;;;12.88;2.17;;;10.10;99.90;;;;;;6274847;28;20057;-87
2023/12/18 08:09:49;;;;;;;8.48;1.98;;;10.00;99.90;;;;;;6251185;28;20140;-88
2023/12/18 08:12:50;;;;;;;13.32;2.50;;;10.00;99.90;;;;;;6267142;28;20053;-84
2023/12/18 08:15:53;;;;;;;15.93;2.22;;;10.00;99.90;;;;;;6251716;28;20121;-86
2023/12/18 08:18:54;;;;;;;14.65;2.78;;;10.10;99.90;;;;;;6250180;28;20377;-87
2023/12/18 08:21:56;;;;;;;11.35;2.40;;;10.10;99.90;;;;;;6282040;28;20085;-85
2023/12/18 08:25:00;;;;;;;7.82;2.13;;;10.10;99.90;;;;;;6273864;28;20458;-87
2023/12/18 08:28:02;;;;;;;10.57;2.20;;;10.20;99.90;;;;;;6269481;28;20045;-88
2023/12/18 08:31:04;;;;;;;14.70;2.50;;;10.20;99.90;;;;;;6250392;28;20049;-88
2023/12/18 08:34:06;;;;;;;10.85;1.92;;;10.20;99.90;;;;;;6274855;28;20064;-86
2023/12/18 08:37:08;;;;;;;11.20;2.13;;;10.20;99.90;;;;;;6251125;28;20792;-86
2023/12/18 08:40:10;;;;;;;10.73;1.85;;;10.30;99.90;;;;;;6244326;28;20057;-82
2023/12/18 08:43:12;;;;;;;17.40;2.85;;;10.40;99.40;;;;;;6260827;28;20154;-77
2023/12/18 08:46:13;;;;;;;12.68;1.90;;;10.50;99.50;;;;;;6252015;28;20060;-83
2023/12/18 08:49:15;;;;;;;10.70;2.40;;;10.50;98.70;;;;;;6265273;28;20515;-84
2023/12/18 08:52:17;;;;;;;11.23;2.20;;;10.60;98.60;;;;;;6263145;28;20056;-82
2023/12/18 08:55:19;;;;;;;13.90;2.22;;;10.60;98.50;;;;;;6261457;28;20339;-81
2023/12/18 08:58:21;;;;;;;14.10;2.00;;;10.60;97.30;;;;;;6243975;28;20067;-80
2023/12/18 09:01:23;;;;;;;9.90;2.00;;;10.60;97.80;;;;;;6267881;28;20065;-80
2023/12/18 09:04:25;;;;;;;12.57;2.58;;;10.60;97.60;;;;;;6253893;28;20050;-80
2023/12/18 09:07:27;;;;;;;14.23;2.58;;;10.70;97.20;;;;;;6267749;28;20135;-85
2023/12/18 09:10:30;;;;;;;12.52;2.40;;;10.80;97.40;;;;;;6268226;28;20053;-84
2023/12/18 09:13:33;;;;;;;11.57;2.30;;;10.80;96.10;;;;;;6250210;28;20523;-84
2023/12/18 09:16:35;;;;;;;9.27;2.28;;;10.90;96.80;;;;;;6270694;28;20053;-85
2023/12/18 09:19:39;;;;;;;12.20;2.08;;;11.00;96.20;;;;;;6248043;28;20085;-84
2023/12/18 09:22:42;;;;;;;13.63;2.80;;;11.10;93.90;;;;;;6269351;28;20131;-84
2023/12/18 09:25:44;;;;;;;10.85;2.75;;;11.10;94.10;;;;;;6244986;28;20057;-84
2023/12/18 09:28:46;;;;;;;11.75;2.60;;;11.20;94.30;;;;;;6260613;28;20041;-84
2023/12/18 09:31:48;;;;;;;11.27;2.63;;;11.30;94.30;;;;;;6249568;28;20057;-88
2023/12/18 09:34:50;;;;;;;8.18;1.92;;;11.30;93.70;;;;;;6260684;28;20049;-86
2023/12/18 09:37:53;;;;;;;8.73;2.05;;;11.40;92.40;;;;;;6248633;28;20519;-88
2023/12/18 09:40:55;;;;;;;9.57;1.90;;;11.50;92.30;;;;;;6288953;28;20053;-88
2023/12/18 09:43:57;;;;;;;9.68;1.83;;;11.50;92.30;;;;;;6256334;28;20052;-91
2023/12/18 09:46:59;;;;;;;12.32;1.88;;;11.40;92.20;;;;;;6273494;28;20053;-91
2023/12/18 09:50:01;;;;;;;10.52;1.85;;;11.40;92.10;;;;;;6250066;28;20045;-91
2023/12/18 09:53:03;;;;;;;8.52;1.70;;;11.40;91.70;;;;;;6249524;28;20059;-92
2023/12/18 09:56:06;;;;;;;12.98;2.25;;;11.30;91.60;;;;;;6250781;28;20052;-91
2023/12/18 09:59:08;;;;;;;12.82;2.33;;;11.30;92.60;;;;;;6261053;28;20088;-85
2023/12/18 10:02:10;;;;;;;6.88;2.22;;;11.40;93.40;;;;;;6247400;28;20056;-87
2023/12/18 10:05:12;;;;;;;6.78;2.10;;;11.40;92.70;;;;;;6271368;28;20108;-86
2023/12/18 10:08:15;;;;;;;11.23;2.25;;;11.50;92.20;;;;;;6248428;28;20151;-89
2023/12/18 10:11:17;;;;;;;7.05;2.15;;;11.50;91.80;;;;;;6279465;28;20060;-89
2023/12/18 10:14:19;;;;;;;10.40;2.25;;;11.50;92.40;;;;;;6251237;28;20463;-82
2023/12/18 10:17:21;;;;;;;9.50;2.13;;;11.50;92.30;;;;;;6268543;28;20136;-83
2023/12/18 10:20:23;;;;;;;10.40;2.17;;;11.50;92.50;;;;;;6243548;28;20053;-82
2023/12/18 10:23:25;;;;;;;10.15;2.17;;;11.50;91.90;;;;;;6267875;28;20645;-80
2023/12/18 10:26:31;;;;;;;11.73;2.75;;;11.50;92.30;;;;;;6267908;28;20125;-83
2023/12/18 10:29:33;;;;;;;11.25;2.33;;;11.50;92.20;;;;;;6254399;28;20083;-81
2023/12/18 10:32:36;;;;;;;15.02;2.67;;;11.50;92.20;;;;;;6267506;28;20060;-81
2023/12/18 10:35:39;;;;;;;11.07;2.30;;;11.50;91.50;;;;;;6243734;28;20107;-81
2023/12/18 10:38:41;;;;;;;14.10;3.00;;;11.50;91.90;;;;;;6264111;28;20049;-82
2023/12/18 10:41:43;;;;;;;11.57;2.38;;;11.50;92.30;;;;;;6266211;28;20534;-83
2023/12/18 10:44:45;;;;;;;10.05;2.03;;;11.50;91.60;;;;;;6240933;28;20128;-81
2023/12/18 10:47:47;;;;;;;10.63;2.47;;;11.50;90.50;;;;;;6268997;28;20048;-81
2023/12/18 10:50:49;;;;;;;10.70;2.05;;;11.50;90.80;;;;;;6245852;28;20076;-82
2023/12/18 10:53:50;;;;;;;16.73;2.65;;;11.50;90.90;;;;;;6268955;28;20424;-82
2023/12/18 10:56:52;;;;;;;11.75;2.08;;;11.50;91.40;;;;;;6245714;28;20060;-83
2023/12/18 10:59:54;;;;;;;13.27;2.88;;;11.60;91.50;;;;;;6264874;28;20515;-82
2023/12/18 11:02:56;;;;;;;9.43;2.00;;;11.60;91.20;;;;;;6245355;28;20057;-81
2023/12/18 11:05:57;;;;;;;14.80;2.67;;;11.60;91.00;;;;;;6265632;28;20546;-80
2023/12/18 11:08:59;;;;;;;11.45;2.10;;;11.60;91.10;;;;;;6247857;28;20420;-80
2023/12/18 11:12:01;;;;;;;10.77;2.15;;;11.60;91.30;;;;;;6271513;28;20049;-81
2023/12/18 11:15:03;;;;;;;14.05;2.58;;;11.60;90.40;;;;;;6243505;28;20049;-81
2023/12/18 11:18:04;;;;;;;13.43;2.28;;;11.60;90.50;;;;;;6271465;28;20060;-81
2023/12/18 11:21:06;;;;;;;9.82;2.20;;;11.60;90.50;;;;;;6247009;28;20053;-81
2023/12/18 11:24:08;;;;;;;14.90;2.28;;;11.60;91.50;;;;;;6271237;28;20068;-81
2023/12/18 11:27:09;;;;;;;11.65;2.58;;;11.70;91.60;;;;;;6255936;28;20053;-81
2023/12/18 11:30:11;;;;;;;13.40;2.65;;;11.70;91.10;;;;;;6256991;28;20053;-82
2023/12/18 11:33:13;;;;;;;10.98;2.38;;;11.80;90.30;;;;;;6271731;28;20147;-85
2023/12/18 11:36:17;;;;;;;16.23;2.90;;;11.80;90.60;;;;;;6248641;28;20164;-83
2023/12/18 11:39:19;;;;;;;12.15;2.47;;;11.90;91.60;;;;;;6271745;28;20481;-88
2023/12/18 11:42:21;;;;;;;12.73;2.65;;;11.90;91.30;;;;;;6252008;28;20060;-86
2023/12/18 11:45:23;;;;;;;13.38;2.22;;;12.00;90.60;;;;;;6267245;28;20060;-89
2023/12/18 11:48:24;;;;;;;11.52;2.40;;;12.00;89.00;;;;;;6251916;28;20053;-88
2023/12/18 11:51:27;;;;;;;10.63;2.03;;;12.20;89.60;;;;;;6275048;28;20058;-87
2023/12/18 11:54:29;;;;;;;10.88;2.38;;;12.20;86.60;;;;;;6272704;28;20067;-85
2023/12/18 11:57:31;;;;;;;10.02;1.70;;;12.30;86.10;;;;;;6272611;28;20045;-86
2023/12/18 12:00:33;;;;;;;5.57;1.70;;;13.10;81.50;;;;;;6243971;28;20057;-86
2023/12/18 12:03:35;;;;;;;11.05;3.13;;;13.70;62.00;;;;;;6249972;28;20110;-87
2023/12/18 12:06:37;;;;;;;9.13;1.50;;;14.20;43.60;;;;;;6276200;28;20053;-82
2023/12/18 12:09:43;;;;;;;5.05;1.35;;;14.70;17.60;;;;;;6253105;28;20768;-86
2023/12/18 12:12:46;;;;;;;7.43;1.38;;;14.70;17.60;;;;;;6252609;28;20500;-87
2023/12/18 12:15:47;;;;;;;8.75;1.50;;;14.30;26.20;;;;;;6262262;28;20073;-89
2023/12/18 12:18:54;;;;;;;12.02;1.88;;;14.00;36.10;;;;;;6247977;28;20110;-90
2023/12/18 12:21:57;;;;;;;11.07;1.55;;;13.70;44.10;;;;;;6265179;28;20077;-88
2023/12/18 12:24:59;;;;;;;15.43;2.15;;;13.40;49.60;;;;;;6265371;28;20045;-85
2023/12/18 12:28:01;;;;;;;10.70;1.40;;;13.20;59.70;;;;;;6268539;28;20512;-83
2023/12/18 12:31:03;;;;;;;7.45;1.33;;;13.00;61.60;;;;;;6274753;28;20067;-87
2023/12/18 12:34:05;;;;;;;11.50;1.48;;;12.80;65.70;;;;;;6249705;28;20746;-86
2023/12/18 12:37:09;;;;;;;8.18;1.42;;;12.80;67.40;;;;;;6274608;28;20048;-87
2023/12/18 12:40:11;;;;;;;8.85;1.58;;;12.80;71.20;;;;;;6250713;28;20055;-87
2023/12/18 12:43:13;;;;;;;10.45;1.95;;;12.60;74.10;;;;;;6264965;28;20072;-87
2023/12/18 12:46:14;;;;;;;9.30;1.80;;;12.60;74.10;;;;;;6268241;28;20056;-86
2023/12/18 12:49:23;;;;;;;8.67;1.70;;;12.60;74.00;;;;;;6249960;28;20057;-86
2023/12/18 12:52:25;;;;;;;14.98;2.20;;;12.50;73.90;;;;;;6271162;28;20053;-86
2023/12/18 12:55:27;;;;;;;10.38;1.90;;;12.50;75.70;;;;;;6246055;28;20053;-86
2023/12/18 12:58:33;;;;;;;12.73;1.77;;;12.50;79.00;;;;;;6258419;28;20535;-88
2023/12/18 13:01:35;;;;;;;14.27;2.10;;;12.50;76.00;;;;;;6270330;28;20055;-87
2023/12/18 13:04:37;;;;;;;8.43;2.22;;;12.40;74.00;;;;;;6246321;28;20089;-85
2023/12/18 13:07:39;;;;;;;13.15;2.10;;;12.40;77.50;;;;;;6270471;28;20056;-83
2023/12/18 13:10:41;;;;;;;10.63;1.98;;;12.40;78.50;;;;;;6246955;28;20512;-85
2023/12/18 13:13:43;;;;;;;13.38;2.00;;;12.40;77.10;;;;;;6259174;28;20057;-83
2023/12/18 13:16:45;;;;;;;10.15;2.47;;;12.30;80.60;;;;;;6269014;28;20144;-83
2023/12/18 13:19:47;;;;;;;9.35;1.90;;;12.30;79.90;;;;;;6255487;28;20061;-85
2023/12/18 13:22:49;;;;;;;10.70;1.88;;;12.30;81.30;;;;;;6272601;28;20130;-84
2023/12/18 13:25:50;;;;;;;12.85;2.25;;;12.30;81.70;;;;;;6247425;28;20060;-85
2023/12/18 13:28:52;;;;;;;13.35;2.13;;;12.30;85.00;;;;;;6259312;28;20049;-87
2023/12/18 13:31:54;;;;;;;13.60;2.55;;;12.40;83.20;;;;;;6271795;28;20060;-84
2023/12/18 13:34:56;;;;;;;11.98;2.28;;;12.40;82.30;;;;;;6247399;28;20087;-86
2023/12/18 13:37:58;;;;;;;11.70;2.30;;;12.30;87.10;;;;;;6272571;28;20052;-86
2023/12/18 13:41:00;;;;;;;15.60;2.95;;;12.30;88.30;;;;;;6246736;28;20079;-84
2023/12/18 13:44:02;;;;;;;15.00;2.85;;;12.30;87.10;;;;;;6259346;28;20068;-86
2023/12/18 13:47:03;;;;;;;9.85;2.15;;;12.20;90.00;;;;;;6270588;28;20057;-85
2023/12/18 13:50:05;;;;;;;10.05;2.15;;;12.20;88.80;;;;;;6245774;28;20190;-86
2023/12/18 13:53:07;;;;;;;8.80;2.20;;;12.20;90.50;;;;;;6270089;28;20488;-84
2023/12/18 13:56:09;;;;;;;11.43;2.60;;;12.20;91.10;;;;;;6247278;28;20412;-83
2023/12/18 13:59:11;;;;;;;9.95;2.42;;;12.20;92.30;;;;;;6253628;28;20052;-85
2023/12/18 14:02:13;;;;;;;12.57;2.50;;;12.30;92.00;;;;;;6270121;28;20067;-84
2023/12/18 14:05:15;;;;;;;11.30;2.15;;;12.30;92.10;;;;;;6247729;28;20053;-85
2023/12/18 14:08:16;;;;;;;14.98;2.22;;;12.30;91.40;;;;;;6270866;28;20110;-85
2023/12/18 14:11:18;;;;;;;10.75;2.35;;;12.30;92.00;;;;;;6247908;28;20050;-86
2023/12/18 14:14:20;;;;;;;9.20;2.28;;;12.30;92.60;;;;;;6249282;28;20073;-87
2023/12/18 14:17:21;;;;;;;9.63;2.50;;;12.30;92.50;;;;;;6268114;28;20091;-86
2023/12/18 14:20:28;;;;;;;15.38;2.40;;;12.30;92.60;;;;;;6262686;28;20057;-86
2023/12/18 14:23:30;;;;;;;10.57;2.65;;;12.20;93.00;;;;;;6269167;28;20060;-85
2023/12/18 14:26:31;;;;;;;12.50;2.45;;;12.20;93.40;;;;;;6245912;28;20080;-85
2023/12/18 14:29:33;;;;;;;18.92;2.83;;;12.10;94.20;;;;;;6264740;28;20467;-87
2023/12/18 14:32:35;;;;;;;17.52;2.72;;;12.10;93.90;;;;;;6247733;28;20061;-86
2023/12/18 14:35:37;;;;;;;10.85;2.30;;;12.20;94.80;;;;;;6270039;28;20057;-85
2023/12/18 14:38:38;;;;;;;14.57;2.65;;;12.20;94.30;;;;;;6246430;28;20057;-88
2023/12/18 14:41:40;;;;;;;13.68;2.70;;;12.20;94.90;;;;;;6272371;28;20136;-85
2023/12/18 14:44:42;;;;;;;8.68;2.22;;;12.20;94.80;;;;;;6257729;28;20080;-86
2023/12/18 14:47:43;;;;;;;10.25;2.40;;;12.20;95.50;;;;;;6276910;28;20060;-86
2023/12/18 14:50:45;;;;;;;9.55;2.25;;;12.20;95.10;;;;;;6251648;28;20052;-86
2023/12/18 14:53:47;;;;;;;9.93;2.35;;;12.20;95.60;;;;;;6274353;28;20049;-84
2023/12/18 14:56:52;;;;;;;12.70;2.40;;;12.20;95.70;;;;;;6252528;28;20042;-87
2023/12/18 14:59:54;;;;;;;21.23;2.72;;;12.20;95.80;;;;;;6251124;28;20108;-86
2023/12/18 15:02:56;;;;;;;12.50;2.38;;;12.20;96.50;;;;;;6271095;28;20045;-79
2023/12/18 15:05:58;;;;;;;10.23;2.40;;;12.20;96.70;;;;;;6258494;28;20061;-79
2023/12/18 15:09:00;;;;;;;12.73;2.92;;;12.20;97.10;;;;;;6249900;28;20049;-80
2023/12/18 15:12:02;;;;;;;15.25;2.90;;;12.20;97.60;;;;;;6267384;28;20080;-80
2023/12/18 15:15:03;;;;;;;13.88;3.25;;;12.20;97.60;;;;;;6243737;28;20095;-79
2023/12/18 15:18:05;;;;;;;13.18;2.65;;;12.20;97.50;;;;;;6271210;28;20053;-80
2023/12/18 15:21:07;;;;;;;18.77;3.20;;;12.20;97.70;;;;;;6247370;28;20519;-83
2023/12/18 15:24:09;;;;;;;14.30;2.70;;;12.20;97.70;;;;;;6257829;28;20060;-81
2023/12/18 15:27:11;;;;;;;16.48;3.03;;;12.20;98.30;;;;;;6269743;28;20064;-81
2023/12/18 15:30:14;;;;;;;11.73;2.35;;;12.10;98.40;;;;;;6254172;28;20064;-80
2023/12/18 15:33:16;;;;;;;15.10;3.15;;;12.10;99.10;;;;;;6270974;28;20072;-81
2023/12/18 15:36:18;;;;;;;13.63;2.85;;;12.10;99.70;;;;;;6271827;28;20081;-80
2023/12/18 15:39:21;;;;;;;17.92;3.90;;;12.00;99.70;;;;;;6246508;28;20469;-79
2023/12/18 15:42:25;;;;;;;12.82;2.40;;;12.00;99.90;;;;;;6271267;28;20056;-80